Time;durP1;ratioP1;P1;durP2;ratioP2;P2;SDS_P1;SDS_P2;PMS_P1;PMS_P2;Temp;Humidity;BMP_temperature;BMP_pressure;BME280_temperature;BME280_humidity;BME280_pressure;Samples;Min_cycle;Max_cycle;Signal;HPM_P1;HPM_P2
2023/12/31 00:01:33;;;;;;;98.93;46.47;;;;;;;;;;10019811;29;20642;-81
2023/12/31 00:06:34;;;;;;;97.93;43.57;;;;;;;;;;10010810;29;20547;-83
2023/12/31 00:11:35;;;;;;;102.77;41.63;;;;;;;;;;10014759;29;20160;-80
2023/12/31 00:16:36;;;;;;;96.13;38.10;;;;;;;;;;10014731;29;20481;-80
2023/12/31 00:21:48;;;;;;;69.80;30.60;;;;;;;;;;10048131;24;20430;-83
2023/12/31 00:26:49;;;;;;;108.07;39.70;;;;;;;;;;10052097;29;20475;-84
2023/12/31 00:31:50;;;;;;;72.63;33.07;;;;;;;;;;10039063;29;20038;-82
2023/12/31 00:36:51;;;;;;;124.97;43.80;;;;;;;;;;10048446;29;20112;-80
2023/12/31 00:41:52;;;;;;;157.77;50.83;;;;;;;;;;10045867;29;20038;-85
2023/12/31 00:46:53;;;;;;;70.50;34.77;;;;;;;;;;10036657;29;20040;-81
2023/12/31 00:51:54;;;;;;;138.47;52.47;;;;;;;;;;10041757;29;20068;-80
2023/12/31 00:56:55;;;;;;;152.60;52.73;;;;;;;;;;10049919;29;20486;-81
2023/12/31 01:01:56;;;;;;;105.27;43.33;;;;;;;;;;10049389;29;20049;-80
2023/12/31 01:06:57;;;;;;;113.80;45.00;;;;;;;;;;10040260;29;20041;-80
2023/12/31 01:11:58;;;;;;;79.90;39.23;;;;;;;;;;10044292;29;20033;-80
2023/12/31 01:16:59;;;;;;;124.70;50.50;;;;;;;;;;10042932;29;20041;-82
2023/12/31 01:22:07;;;;;;;160.07;59.90;;;;;;;;;;10045174;29;20069;-83
2023/12/31 01:27:08;;;;;;;179.50;71.27;;;;;;;;;;10041563;29;20033;-79
2023/12/31 01:32:09;;;;;;;168.83;68.07;;;;;;;;;;10034305;29;20090;-80
2023/12/31 01:37:10;;;;;;;176.07;69.23;;;;;;;;;;10049114;29;20037;-81
2023/12/31 01:42:11;;;;;;;158.43;59.03;;;;;;;;;;10032117;29;20037;-81
2023/12/31 01:47:13;;;;;;;181.60;67.63;;;;;;;;;;10054525;24;20037;-81
2023/12/31 01:52:14;;;;;;;184.07;63.10;;;;;;;;;;10159287;29;20481;-82
2023/12/31 01:57:15;;;;;;;175.90;63.17;;;;;;;;;;10158685;29;20032;-80
2023/12/31 02:02:16;;;;;;;94.13;41.50;;;;;;;;;;10149361;29;20484;-81
2023/12/31 02:07:18;;;;;;;183.33;68.80;;;;;;;;;;10163625;29;20040;-82
2023/12/31 02:12:27;;;;;;;195.33;78.13;;;;;;;;;;10159954;29;20143;-83
2023/12/31 02:17:28;;;;;;;122.90;54.53;;;;;;;;;;10152758;29;20044;-82
2023/12/31 02:22:29;;;;;;;214.07;76.40;;;;;;;;;;10156099;29;20066;-81
2023/12/31 02:27:30;;;;;;;148.50;62.27;;;;;;;;;;10146151;29;20075;-82
2023/12/31 02:32:31;;;;;;;186.20;64.97;;;;;;;;;;10132499;29;20040;-81
2023/12/31 02:37:32;;;;;;;235.37;82.93;;;;;;;;;;10157661;29;20042;-83
2023/12/31 02:42:33;;;;;;;139.63;59.03;;;;;;;;;;10151241;29;20047;-83
2023/12/31 02:47:34;;;;;;;189.10;72.07;;;;;;;;;;10143535;29;20064;-81
2023/12/31 02:52:43;;;;;;;193.43;66.70;;;;;;;;;;10156285;29;20043;-81
2023/12/31 02:57:44;;;;;;;169.27;61.27;;;;;;;;;;10147408;29;20071;-83
2023/12/31 03:02:45;;;;;;;74.80;35.97;;;;;;;;;;10162420;29;20051;-81
2023/12/31 03:07:46;;;;;;;182.53;62.00;;;;;;;;;;10157133;29;20047;-81
2023/12/31 03:12:47;;;;;;;84.00;39.10;;;;;;;;;;10157473;29;20040;-82
2023/12/31 03:17:48;;;;;;;121.80;47.00;;;;;;;;;;10145927;29;20579;-82
2023/12/31 03:22:50;;;;;;;146.27;56.77;;;;;;;;;;10151214;29;20039;-82
2023/12/31 03:27:51;;;;;;;199.93;66.70;;;;;;;;;;10138045;29;20659;-83
2023/12/31 03:32:52;;;;;;;144.93;61.57;;;;;;;;;;10155579;29;20086;-80
2023/12/31 03:37:53;;;;;;;178.73;62.47;;;;;;;;;;10164000;29;20050;-82
2023/12/31 03:42:54;;;;;;;197.40;66.63;;;;;;;;;;10151521;29;20472;-84
2023/12/31 03:47:55;;;;;;;145.53;56.37;;;;;;;;;;10146919;23;20095;-82
2023/12/31 03:52:56;;;;;;;151.53;51.63;;;;;;;;;;10116924;29;20029;-82
2023/12/31 03:58:06;;;;;;;81.77;35.73;;;;;;;;;;10167461;29;20036;-83
2023/12/31 04:03:07;;;;;;;145.87;46.87;;;;;;;;;;10166211;29;20120;-83
2023/12/31 04:08:08;;;;;;;123.93;41.20;;;;;;;;;;10167538;29;20039;-82
2023/12/31 04:13:09;;;;;;;95.63;38.40;;;;;;;;;;10159467;29;20036;-82
2023/12/31 04:18:10;;;;;;;187.40;61.33;;;;;;;;;;10160897;29;20451;-81
2023/12/31 04:23:11;;;;;;;141.57;52.90;;;;;;;;;;10149511;29;20036;-82
2023/12/31 04:28:12;;;;;;;141.80;56.03;;;;;;;;;;10166321;29;20051;-82
2023/12/31 04:33:13;;;;;;;77.17;33.87;;;;;;;;;;10155892;29;20050;-82
2023/12/31 04:38:14;;;;;;;105.80;42.63;;;;;;;;;;10167861;29;20046;-82
2023/12/31 04:43:15;;;;;;;126.00;39.60;;;;;;;;;;10164298;29;20399;-81
2023/12/31 04:48:16;;;;;;;151.87;48.60;;;;;;;;;;10157400;29;20074;-80
2023/12/31 04:53:20;;;;;;;137.60;47.73;;;;;;;;;;10168437;29;20040;-81
2023/12/31 04:58:21;;;;;;;129.23;47.53;;;;;;;;;;10166573;29;20039;-81
2023/12/31 05:03:22;;;;;;;196.20;55.30;;;;;;;;;;10166199;29;20039;-80
2023/12/31 05:08:23;;;;;;;229.63;57.63;;;;;;;;;;10167565;29;20042;-82
2023/12/31 05:13:32;;;;;;;145.70;54.17;;;;;;;;;;10162828;29;20048;-81
2023/12/31 05:18:33;;;;;;;117.00;38.23;;;;;;;;;;10147103;29;20127;-81
2023/12/31 05:23:34;;;;;;;233.60;62.10;;;;;;;;;;10156631;29;20048;-82
2023/12/31 05:28:35;;;;;;;113.63;41.57;;;;;;;;;;10164264;29;20180;-80
2023/12/31 05:33:36;;;;;;;511.17;119.40;;;;;;;;;;10156274;29;20041;-82
2023/12/31 05:38:37;;;;;;;242.57;51.80;;;;;;;;;;10162870;29;20093;-82
2023/12/31 05:43:38;;;;;;;339.60;70.97;;;;;;;;;;10163131;29;20039;-81
2023/12/31 05:48:39;;;;;;;447.50;129.50;;;;;;;;;;10165240;23;20576;-81
2023/12/31 05:53:40;;;;;;;352.37;81.77;;;;;;;;;;10157922;29;20087;-81
2023/12/31 05:58:42;;;;;;;487.63;93.90;;;;;;;;;;10146293;29;20473;-81
2023/12/31 06:03:43;;;;;;;595.07;113.80;;;;;;;;;;10143568;29;20039;-81
2023/12/31 06:08:44;;;;;;;368.33;75.07;;;;;;;;;;10146523;29;20051;-82
2023/12/31 06:13:45;;;;;;;134.00;38.67;;;;;;;;;;10145170;29;20063;-84
2023/12/31 06:18:46;;;;;;;106.00;32.53;;;;;;;;;;10146312;29;20124;-81
2023/12/31 06:23:47;;;;;;;514.23;97.37;;;;;;;;;;10148979;29;20119;-81
2023/12/31 06:28:49;;;;;;;329.77;70.47;;;;;;;;;;10129686;29;20055;-81
2023/12/31 06:33:50;;;;;;;223.10;68.03;;;;;;;;;;10093494;29;20049;-82
2023/12/31 06:38:51;;;;;;;142.30;50.47;;;;;;;;;;10109580;29;20063;-83
2023/12/31 06:43:52;;;;;;;156.27;57.27;;;;;;;;;;10114350;29;20033;-82
2023/12/31 06:48:53;;;;;;;236.40;70.93;;;;;;;;;;10098247;29;20057;-82
2023/12/31 06:53:57;;;;;;;280.77;79.30;;;;;;;;;;10097193;29;20032;-85
2023/12/31 06:58:58;;;;;;;261.20;87.63;;;;;;;;;;10124388;29;20438;-82
2023/12/31 07:03:59;;;;;;;138.23;55.47;;;;;;;;;;10116204;29;20537;-84
2023/12/31 07:09:00;;;;;;;203.03;72.60;;;;;;;;;;10105860;29;20107;-84
2023/12/31 07:14:01;;;;;;;97.43;41.73;;;;;;;;;;10115084;29;20745;-81
2023/12/31 07:19:08;;;;;;;144.67;55.87;;;;;;;;;;10120596;29;20434;-83
2023/12/31 07:24:10;;;;;;;102.87;41.63;;;;;;;;;;10117904;29;20036;-81
2023/12/31 07:29:11;;;;;;;121.47;50.23;;;;;;;;;;10125680;29;20037;-85
2023/12/31 07:34:12;;;;;;;316.70;107.70;;;;;;;;;;10122106;29;20028;-83
2023/12/31 07:39:13;;;;;;;94.10;45.53;;;;;;;;;;10115083;29;20093;-85
2023/12/31 07:44:18;;;;;;;189.60;81.17;;;;;;;;;;10097893;29;20376;-85
2023/12/31 07:49:19;;;;;;;141.97;58.17;;;;;;;;;;10110134;29;20447;-83
2023/12/31 07:54:20;;;;;;;226.97;87.87;;;;;;;;;;10122522;29;20080;-83
2023/12/31 07:59:21;;;;;;;237.17;87.80;;;;;;;;;;10115244;29;20585;-83
2023/12/31 08:04:22;;;;;;;256.63;100.60;;;;;;;;;;10108744;29;20118;-82
2023/12/31 08:09:23;;;;;;;323.77;117.43;;;;;;;;;;10093148;29;20072;-82
2023/12/31 08:14:31;;;;;;;268.90;108.87;;;;;;;;;;10080479;29;20049;-82
2023/12/31 08:19:38;;;;;;;269.40;110.53;;;;;;;;;;10118371;29;20080;-83
2023/12/31 08:24:39;;;;;;;233.83;93.20;;;;;;;;;;10112052;29;20029;-83
2023/12/31 08:29:40;;;;;;;225.80;98.10;;;;;;;;;;10118343;29;20049;-82
2023/12/31 08:34:41;;;;;;;120.03;59.93;;;;;;;;;;10114856;29;20029;-83
2023/12/31 08:39:42;;;;;;;123.77;65.97;;;;;;;;;;10106791;29;20029;-82
2023/12/31 08:44:44;;;;;;;104.00;55.20;;;;;;;;;;10111753;29;20451;-82
2023/12/31 08:49:45;;;;;;;103.20;55.20;;;;;;;;;;10111309;29;20565;-82
2023/12/31 08:54:47;;;;;;;87.17;44.70;;;;;;;;;;10117621;29;20032;-83
2023/12/31 08:59:48;;;;;;;99.07;51.83;;;;;;;;;;10115152;29;20024;-84
2023/12/31 09:04:49;;;;;;;122.90;61.10;;;;;;;;;;10104008;29;20044;-86
2023/12/31 09:09:56;;;;;;;98.37;50.10;;;;;;;;;;10109175;29;20489;-82
2023/12/31 09:14:57;;;;;;;69.53;35.63;;;;;;;;;;10107693;29;20036;-86
2023/12/31 09:19:59;;;;;;;58.33;31.17;;;;;;;;;;10093825;29;20037;-83
2023/12/31 09:25:01;;;;;;;60.87;31.33;;;;;;;;;;10113766;29;20041;-82
2023/12/31 09:30:02;;;;;;;55.17;31.77;;;;;;;;;;10110318;29;20048;-84
2023/12/31 09:35:04;;;;;;;47.73;26.93;;;;;;;;;;10118172;29;20064;-84
2023/12/31 09:40:05;;;;;;;46.60;25.57;;;;;;;;;;10106370;29;20358;-80
2023/12/31 09:45:09;;;;;;;45.73;25.70;;;;;;;;;;10117038;29;20151;-83
2023/12/31 09:50:13;;;;;;;53.80;29.00;;;;;;;;;;10103886;29;20048;-84
2023/12/31 09:55:20;;;;;;;54.70;29.97;;;;;;;;;;10125432;29;20520;-82
2023/12/31 10:00:22;;;;;;;65.10;35.97;;;;;;;;;;10102531;29;20493;-79
2023/12/31 10:05:24;;;;;;;58.80;33.23;;;;;;;;;;10103497;29;20056;-80
2023/12/31 10:10:27;;;;;;;46.63;26.30;;;;;;;;;;10096253;29;20060;-82
2023/12/31 10:15:38;;;;;;;57.27;29.70;;;;;;;;;;10102859;29;20040;-84
2023/12/31 10:20:39;;;;;;;45.37;26.13;;;;;;;;;;10117212;29;20043;-82
2023/12/31 10:25:42;;;;;;;48.83;27.73;;;;;;;;;;10096210;29;20132;-82
2023/12/31 10:30:43;;;;;;;52.87;29.83;;;;;;;;;;10115267;29;20476;-82
2023/12/31 10:35:46;;;;;;;48.17;25.23;;;;;;;;;;10117062;29;20042;-82
2023/12/31 10:40:47;;;;;;;43.83;25.40;;;;;;;;;;10107782;29;20161;-82
2023/12/31 10:45:56;;;;;;;54.53;31.50;;;;;;;;;;10121861;29;20111;-82
2023/12/31 10:50:58;;;;;;;45.37;24.77;;;;;;;;;;10115161;29;20049;-83
2023/12/31 10:56:06;;;;;;;39.60;22.60;;;;;;;;;;10077904;29;20406;-84
2023/12/31 11:01:07;;;;;;;38.53;23.07;;;;;;;;;;10081233;29;20068;-83
2023/12/31 11:06:10;;;;;;;48.43;27.57;;;;;;;;;;10106552;29;20044;-83
2023/12/31 11:11:11;;;;;;;39.20;21.77;;;;;;;;;;10083022;29;20558;-82
2023/12/31 11:16:19;;;;;;;45.00;24.83;;;;;;;;;;10118802;29;20037;-83
2023/12/31 11:21:34;;;;;;;35.97;22.80;;;;;;;;;;10122333;29;20040;-80
2023/12/31 11:26:38;;;;;;;36.73;21.43;;;;;;;;;;10119713;29;20041;-82
2023/12/31 11:31:40;;;;;;;41.47;25.17;;;;;;;;;;10116048;29;20536;-83
2023/12/31 11:36:42;;;;;;;64.73;37.47;;;;;;;;;;10097078;29;20040;-83
2023/12/31 11:41:47;;;;;;;44.67;23.30;;;;;;;;;;10121508;29;20820;-81
2023/12/31 11:46:55;;;;;;;44.25;26.23;;;;;;;;;;10103412;29;20107;-81
2023/12/31 11:51:57;;;;;;;30.10;16.73;;;;;;;;;;10099915;29;20048;-82
2023/12/31 11:56:58;;;;;;;30.43;19.27;;;;;;;;;;10115747;29;20051;-80
2023/12/31 12:02:02;;;;;;;32.63;16.07;;;;;;;;;;10103634;29;20040;-81
2023/12/31 12:07:04;;;;;;;34.00;16.57;;;;;;;;;;10119050;29;20115;-80
2023/12/31 12:12:06;;;;;;;31.97;15.33;;;;;;;;;;10113778;29;20052;-82
2023/12/31 12:17:15;;;;;;;29.77;17.13;;;;;;;;;;10111891;29;20036;-82
2023/12/31 12:22:16;;;;;;;29.20;15.27;;;;;;;;;;10102198;29;20052;-80
2023/12/31 12:27:17;;;;;;;41.97;21.40;;;;;;;;;;10110802;29;20486;-79
2023/12/31 12:32:19;;;;;;;28.90;16.57;;;;;;;;;;10109125;29;20125;-80
2023/12/31 12:37:20;;;;;;;28.80;17.07;;;;;;;;;;10119572;29;20033;-81
2023/12/31 12:42:23;;;;;;;28.90;15.27;;;;;;;;;;10111356;29;20035;-80
2023/12/31 12:47:24;;;;;;;25.57;15.33;;;;;;;;;;10115080;29;20072;-79
2023/12/31 12:52:26;;;;;;;26.20;15.50;;;;;;;;;;10108650;29;20532;-84
2023/12/31 12:57:27;;;;;;;28.10;14.47;;;;;;;;;;10116151;29;20044;-80
2023/12/31 13:02:28;;;;;;;29.20;16.77;;;;;;;;;;10116148;29;20044;-83
2023/12/31 13:07:29;;;;;;;31.63;16.80;;;;;;;;;;10112860;29;20451;-80
2023/12/31 13:12:30;;;;;;;37.40;19.20;;;;;;;;;;10110396;29;20036;-80
2023/12/31 13:17:31;;;;;;;47.60;25.97;;;;;;;;;;10106282;29;20108;-79
2023/12/31 13:22:38;;;;;;;52.60;32.17;;;;;;;;;;10125076;29;20537;-79
2023/12/31 13:27:39;;;;;;;38.13;22.53;;;;;;;;;;10114932;29;20039;-80
2023/12/31 13:32:40;;;;;;;37.30;20.67;;;;;;;;;;10123881;29;20390;-84
2023/12/31 13:37:41;;;;;;;34.70;20.97;;;;;;;;;;10118427;29;20044;-81
2023/12/31 13:42:42;;;;;;;40.97;20.80;;;;;;;;;;10120877;29;20108;-83
2023/12/31 13:47:43;;;;;;;35.93;18.47;;;;;;;;;;10110776;29;20116;-81
2023/12/31 13:52:44;;;;;;;44.17;25.30;;;;;;;;;;10111755;29;20045;-82
2023/12/31 13:57:45;;;;;;;56.70;30.40;;;;;;;;;;10109974;29;20037;-80
2023/12/31 14:02:48;;;;;;;69.77;37.20;;;;;;;;;;10113211;29;20071;-80
2023/12/31 14:07:49;;;;;;;66.03;33.50;;;;;;;;;;10112391;29;20055;-82
2023/12/31 14:12:50;;;;;;;71.13;35.10;;;;;;;;;;10115649;29;20037;-82
2023/12/31 14:17:51;;;;;;;59.57;29.03;;;;;;;;;;10110607;29;20037;-81
2023/12/31 14:22:52;;;;;;;53.70;26.27;;;;;;;;;;10095587;29;20041;-82
2023/12/31 14:27:53;;;;;;;60.90;28.87;;;;;;;;;;10106533;29;20496;-78
2023/12/31 14:32:54;;;;;;;77.63;37.27;;;;;;;;;;10085073;29;20051;-80
2023/12/31 14:38:01;;;;;;;98.13;49.43;;;;;;;;;;10112022;29;20028;-79
2023/12/31 14:43:03;;;;;;;115.20;54.67;;;;;;;;;;10105309;29;20028;-79
2023/12/31 14:48:04;;;;;;;128.37;63.10;;;;;;;;;;10107720;29;20056;-78
2023/12/31 14:53:05;;;;;;;139.77;63.53;;;;;;;;;;10093356;29;20045;-83
2023/12/31 14:58:06;;;;;;;435.50;190.57;;;;;;;;;;10104241;29;20048;-79
2023/12/31 15:03:07;;;;;;;321.07;124.03;;;;;;;;;;10117475;29;20123;-81
2023/12/31 15:08:08;;;;;;;238.30;103.63;;;;;;;;;;10113665;29;20056;-79
2023/12/31 15:13:10;;;;;;;174.10;74.67;;;;;;;;;;10101359;29;20498;-80
2023/12/31 15:18:11;;;;;;;166.17;76.07;;;;;;;;;;10117551;29;20489;-81
2023/12/31 15:23:12;;;;;;;173.63;87.80;;;;;;;;;;10111651;29;20029;-82
2023/12/31 15:28:13;;;;;;;113.53;56.97;;;;;;;;;;10106567;29;20041;-83
2023/12/31 15:33:14;;;;;;;117.07;57.20;;;;;;;;;;10119736;29;20040;-81
2023/12/31 15:38:15;;;;;;;73.97;40.90;;;;;;;;;;10104939;29;20041;-82
2023/12/31 15:43:16;;;;;;;74.90;39.97;;;;;;;;;;10127863;29;20119;-80
2023/12/31 15:48:17;;;;;;;73.87;39.37;;;;;;;;;;10123322;29;20072;-80
2023/12/31 15:53:18;;;;;;;84.07;45.90;;;;;;;;;;10118445;29;20040;-80
2023/12/31 15:58:19;;;;;;;89.83;54.50;;;;;;;;;;10127310;29;20029;-79
2023/12/31 16:03:22;;;;;;;74.23;40.20;;;;;;;;;;10115433;29;20053;-82
2023/12/31 16:08:23;;;;;;;75.13;38.43;;;;;;;;;;10124510;29;20080;-81
2023/12/31 16:13:24;;;;;;;76.00;40.13;;;;;;;;;;10122573;29;20036;-82
2023/12/31 16:18:25;;;;;;;80.77;40.57;;;;;;;;;;10112865;29;20063;-79
2023/12/31 16:23:26;;;;;;;89.80;44.43;;;;;;;;;;10110644;29;20048;-82
2023/12/31 16:28:27;;;;;;;68.53;37.07;;;;;;;;;;10106480;29;20049;-82
2023/12/31 16:33:28;;;;;;;48.97;25.77;;;;;;;;;;10116133;29;20096;-80
2023/12/31 16:38:29;;;;;;;54.63;28.60;;;;;;;;;;10102771;29;20033;-80
2023/12/31 16:43:30;;;;;;;63.67;29.87;;;;;;;;;;10104660;29;20092;-83
2023/12/31 16:48:31;;;;;;;71.60;32.70;;;;;;;;;;10113872;29;20064;-79
2023/12/31 16:53:39;;;;;;;76.40;36.33;;;;;;;;;;10125612;29;20063;-80
2023/12/31 16:58:40;;;;;;;70.30;36.03;;;;;;;;;;10116694;29;20044;-82
2023/12/31 17:03:41;;;;;;;74.40;35.67;;;;;;;;;;10110772;29;20032;-79
2023/12/31 17:08:44;;;;;;;142.20;63.33;;;;;;;;;;10120805;29;20041;-80
2023/12/31 17:13:45;;;;;;;248.37;99.87;;;;;;;;;;10120875;29;20036;-81
2023/12/31 17:18:46;;;;;;;508.07;203.23;;;;;;;;;;10110578;29;20393;-80
2023/12/31 17:23:54;;;;;;;261.80;97.27;;;;;;;;;;10115320;29;20029;-79
2023/12/31 17:28:55;;;;;;;296.30;120.90;;;;;;;;;;10104544;29;20037;-80
2023/12/31 17:33:56;;;;;;;274.30;115.03;;;;;;;;;;10106202;29;20845;-81
2023/12/31 17:38:57;;;;;;;235.33;100.07;;;;;;;;;;10108377;29;20037;-85
2023/12/31 17:43:58;;;;;;;233.83;104.80;;;;;;;;;;10111677;29;20750;-80
2023/12/31 17:48:59;;;;;;;221.60;95.73;;;;;;;;;;10095032;29;20068;-82
2023/12/31 17:54:00;;;;;;;110.47;53.87;;;;;;;;;;10085874;29;20104;-81
2023/12/31 17:59:02;;;;;;;122.73;56.47;;;;;;;;;;10085720;29;20052;-79
2023/12/31 18:04:03;;;;;;;103.23;48.93;;;;;;;;;;10085586;29;20037;-80
2023/12/31 18:09:04;;;;;;;126.37;63.93;;;;;;;;;;10084492;29;20123;-80
2023/12/31 18:14:05;;;;;;;124.40;58.60;;;;;;;;;;10081876;29;20173;-80
2023/12/31 18:19:06;;;;;;;141.93;67.40;;;;;;;;;;10084241;29;20028;-79
2023/12/31 18:24:07;;;;;;;164.00;79.53;;;;;;;;;;10081887;29;20486;-79
2023/12/31 18:29:08;;;;;;;162.33;74.80;;;;;;;;;;10083918;29;20084;-80
2023/12/31 18:34:12;;;;;;;116.83;58.23;;;;;;;;;;10084126;29;20033;-78
2023/12/31 18:39:13;;;;;;;100.10;51.50;;;;;;;;;;10084252;29;20168;-83
2023/12/31 18:44:14;;;;;;;90.57;47.13;;;;;;;;;;10083490;29;20033;-80
2023/12/31 18:49:15;;;;;;;90.27;46.03;;;;;;;;;;10107025;29;20489;-79
2023/12/31 18:54:16;;;;;;;80.33;41.83;;;;;;;;;;10102648;29;20056;-82
2023/12/31 18:59:17;;;;;;;84.43;42.90;;;;;;;;;;10106267;29;20097;-80
2023/12/31 19:04:18;;;;;;;84.47;45.07;;;;;;;;;;10100168;29;20044;-80
2023/12/31 19:09:19;;;;;;;88.00;46.70;;;;;;;;;;10120560;29;20108;-79
2023/12/31 19:14:20;;;;;;;76.10;39.77;;;;;;;;;;10123238;29;20416;-79
2023/12/31 19:19:27;;;;;;;93.13;44.63;;;;;;;;;;10112825;29;20048;-81
2023/12/31 19:24:28;;;;;;;83.73;42.90;;;;;;;;;;10124425;29;20032;-79
2023/12/31 19:29:29;;;;;;;95.27;45.40;;;;;;;;;;10130084;29;20485;-80
2023/12/31 19:34:30;;;;;;;97.23;48.43;;;;;;;;;;10096419;29;20088;-81
2023/12/31 19:39:31;;;;;;;95.73;48.30;;;;;;;;;;10130928;29;20041;-83
2023/12/31 19:44:32;;;;;;;103.20;53.53;;;;;;;;;;10118419;29;20033;-80
2023/12/31 19:49:33;;;;;;;104.33;55.93;;;;;;;;;;10117145;29;20428;-81
2023/12/31 19:54:34;;;;;;;106.43;52.93;;;;;;;;;;10106643;29;20100;-80
2023/12/31 19:59:35;;;;;;;92.67;46.87;;;;;;;;;;10120987;29;20545;-79
2023/12/31 20:04:36;;;;;;;85.10;43.97;;;;;;;;;;10118174;29;20040;-80
2023/12/31 20:09:38;;;;;;;73.57;38.77;;;;;;;;;;10129214;29;20488;-83
2023/12/31 20:14:39;;;;;;;92.80;44.30;;;;;;;;;;10124802;29;20040;-80
2023/12/31 20:19:40;;;;;;;76.70;38.80;;;;;;;;;;10122060;29;20144;-79
2023/12/31 20:24:42;;;;;;;87.97;42.63;;;;;;;;;;10117313;29;20497;-80
2023/12/31 20:29:43;;;;;;;87.97;41.80;;;;;;;;;;10116275;29;20618;-79
2023/12/31 20:34:44;;;;;;;87.80;42.20;;;;;;;;;;10120186;29;20047;-79
2023/12/31 20:39:51;;;;;;;84.07;42.30;;;;;;;;;;10117209;29;20029;-81
2023/12/31 20:44:52;;;;;;;92.17;43.57;;;;;;;;;;10111782;29;20044;-79
2023/12/31 20:50:01;;;;;;;100.80;47.97;;;;;;;;;;10113967;29;20065;-80
2023/12/31 20:55:02;;;;;;;102.83;48.33;;;;;;;;;;10115236;29;20029;-78
2023/12/31 21:00:05;;;;;;;110.77;52.77;;;;;;;;;;10102160;29;20381;-80
2023/12/31 21:05:08;;;;;;;115.70;58.07;;;;;;;;;;10120676;29;20161;-82
2023/12/31 21:10:16;;;;;;;99.27;50.50;;;;;;;;;;10117455;29;20048;-80
2023/12/31 21:15:17;;;;;;;114.87;52.50;;;;;;;;;;10116479;29;20107;-78
2023/12/31 21:20:18;;;;;;;90.70;45.37;;;;;;;;;;10101523;29;20100;-78
2023/12/31 21:25:19;;;;;;;83.53;40.93;;;;;;;;;;10115429;29;20077;-80
2023/12/31 21:30:20;;;;;;;70.50;34.80;;;;;;;;;;10123956;29;20048;-80
2023/12/31 21:35:21;;;;;;;85.57;41.53;;;;;;;;;;10117149;29;20039;-77
2023/12/31 21:40:22;;;;;;;174.53;72.33;;;;;;;;;;10112932;29;20036;-79
2023/12/31 21:45:24;;;;;;;237.07;97.73;;;;;;;;;;10107130;29;20029;-77
2023/12/31 21:50:25;;;;;;;170.50;83.83;;;;;;;;;;10113612;29;20590;-80
2023/12/31 21:55:26;;;;;;;123.27;57.53;;;;;;;;;;10118363;29;20036;-78
2023/12/31 22:00:27;;;;;;;93.07;45.07;;;;;;;;;;10116111;29;20046;-78
2023/12/31 22:05:30;;;;;;;133.50;66.80;;;;;;;;;;10108239;29;20052;-78
2023/12/31 22:10:31;;;;;;;179.97;86.03;;;;;;;;;;10112461;29;20136;-79
2023/12/31 22:15:32;;;;;;;200.30;89.23;;;;;;;;;;10102718;29;20487;-78
2023/12/31 22:20:33;;;;;;;115.37;55.93;;;;;;;;;;10108366;29;20052;-78
2023/12/31 22:25:34;;;;;;;236.17;97.43;;;;;;;;;;10097172;29;20393;-78
2023/12/31 22:30:35;;;;;;;249.57;113.73;;;;;;;;;;10110721;29;20044;-78
2023/12/31 22:35:38;;;;;;;261.80;116.40;;;;;;;;;;10098735;29;20446;-79
2023/12/31 22:40:40;;;;;;;203.87;91.20;;;;;;;;;;10122348;29;20512;-82
2023/12/31 22:45:42;;;;;;;265.37;109.37;;;;;;;;;;10103798;29;20044;-78
2023/12/31 22:50:43;;;;;;;207.90;93.30;;;;;;;;;;10111836;29;20068;-79
2023/12/31 22:55:44;;;;;;;181.73;86.47;;;;;;;;;;10106128;29;20088;-82
2023/12/31 23:00:45;;;;;;;160.67;76.37;;;;;;;;;;10115992;29;20079;-78
2023/12/31 23:05:46;;;;;;;179.43;78.67;;;;;;;;;;10122730;29;20076;-81
2023/12/31 23:10:53;;;;;;;222.37;111.13;;;;;;;;;;10123256;29;20065;-80
2023/12/31 23:15:54;;;;;;;199.07;97.30;;;;;;;;;;10114453;29;20525;-78
2023/12/31 23:20:56;;;;;;;614.80;364.60;;;;;;;;;;10125096;29;20092;-78
2023/12/31 23:25:59;;;;;;;263.10;117.73;;;;;;;;;;10124106;29;20037;-78
2023/12/31 23:31:00;;;;;;;451.67;198.17;;;;;;;;;;10121884;29;20614;-78
2023/12/31 23:36:03;;;;;;;259.27;110.43;;;;;;;;;;10123789;29;20043;-81
2023/12/31 23:41:04;;;;;;;446.73;156.87;;;;;;;;;;10116510;29;20405;-77
2023/12/31 23:46:07;;;;;;;400.60;155.80;;;;;;;;;;10096693;29;20047;-78
2023/12/31 23:51:08;;;;;;;242.87;107.30;;;;;;;;;;10112820;29;20581;-79
2023/12/31 23:56:09;;;;;;;155.03;77.13;;;;;;;;;;10129082;29;20119;-80
